sensor_id;sensor_type;location;lat;lon;timestamp;pressure;altitude;pressure_sealevel;temperature
37414;BMP280;23279;46.472;30.760;2023-08-21T00:00:56;77093.94;;;-146.33
37414;BMP280;23279;46.472;30.760;2023-08-21T00:03:23;77091.91;;;-146.33
37414;BMP280;23279;46.472;30.760;2023-08-21T00:05:49;77087.84;;;-146.33
37414;BMP280;23279;46.472;30.760;2023-08-21T00:08:14;77085.78;;;-146.33
37414;BMP280;23279;46.472;30.760;2023-08-21T00:10:39;77073.59;;;-146.33
37414;BMP280;23279;46.472;30.760;2023-08-21T00:13:06;77077.66;;;-146.33
37414;BMP280;23279;46.472;30.760;2023-08-21T00:15:31;77059.34;;;-146.33
37414;BMP280;23279;46.472;30.760;2023-08-21T00:17:57;77055.28;;;-146.33
37414;BMP280;23279;46.472;30.760;2023-08-21T00:20:22;77053.25;;;-146.33
37414;BMP280;23279;46.472;30.760;2023-08-21T00:22:48;77053.25;;;-146.33
37414;BMP280;23279;46.472;30.760;2023-08-21T00:25:13;77055.28;;;-146.33
37414;BMP280;23279;46.472;30.760;2023-08-21T00:27:39;77061.38;;;-146.33
37414;BMP280;23279;46.472;30.760;2023-08-21T00:30:04;77059.34;;;-146.33
37414;BMP280;23279;46.472;30.760;2023-08-21T00:32:30;77055.28;;;-146.33
37414;BMP280;23279;46.472;30.760;2023-08-21T00:34:55;77051.22;;;-146.33
37414;BMP280;23279;46.472;30.760;2023-08-21T00:37:21;77055.28;;;-146.33
37414;BMP280;23279;46.472;30.760;2023-08-21T00:39:46;77051.22;;;-146.33
37414;BMP280;23279;46.472;30.760;2023-08-21T00:42:12;77063.41;;;-146.33
37414;BMP280;23279;46.472;30.760;2023-08-21T00:44:37;77061.38;;;-146.33
37414;BMP280;23279;46.472;30.760;2023-08-21T00:47:02;77063.41;;;-146.33
37414;BMP280;23279;46.472;30.760;2023-08-21T00:49:29;77071.56;;;-146.33
37414;BMP280;23279;46.472;30.760;2023-08-21T00:51:54;77069.53;;;-146.33
37414;BMP280;23279;46.472;30.760;2023-08-21T00:54:20;77077.66;;;-146.33
37414;BMP280;23279;46.472;30.760;2023-08-21T00:56:46;77085.78;;;-146.33
37414;BMP280;23279;46.472;30.760;2023-08-21T00:59:12;77108.19;;;-146.33
37414;BMP280;23279;46.472;30.760;2023-08-21T01:01:38;77120.38;;;-146.33
37414;BMP280;23279;46.472;30.760;2023-08-21T01:04:03;77128.50;;;-146.33
37414;BMP280;23279;46.472;30.760;2023-08-21T01:06:29;77104.09;;;-146.33
37414;BMP280;23279;46.472;30.760;2023-08-21T01:09:04;77095.97;;;-146.33
37414;BMP280;23279;46.472;30.760;2023-08-21T01:11:36;77089.88;;;-146.33
37414;BMP280;23279;46.472;30.760;2023-08-21T01:16:39;77091.91;;;-146.33
37414;BMP280;23279;46.472;30.760;2023-08-21T01:21:50;77110.22;;;-146.33
37414;BMP280;23279;46.472;30.760;2023-08-21T01:24:19;77120.38;;;-146.33
37414;BMP280;23279;46.472;30.760;2023-08-21T01:26:44;77148.84;;;-146.33
37414;BMP280;23279;46.472;30.760;2023-08-21T01:29:10;77152.94;;;-146.33
37414;BMP280;23279;46.472;30.760;2023-08-21T01:31:37;77142.75;;;-146.33
37414;BMP280;23279;46.472;30.760;2023-08-21T01:34:05;77142.75;;;-146.33
37414;BMP280;23279;46.472;30.760;2023-08-21T01:36:32;77150.91;;;-146.33
37414;BMP280;23279;46.472;30.760;2023-08-21T01:38:57;77146.81;;;-146.33
37414;BMP280;23279;46.472;30.760;2023-08-21T01:41:23;77165.13;;;-146.33
37414;BMP280;23279;46.472;30.760;2023-08-21T01:43:50;77181.41;;;-146.33
37414;BMP280;23279;46.472;30.760;2023-08-21T01:46:15;77181.41;;;-146.33
37414;BMP280;23279;46.472;30.760;2023-08-21T01:48:41;77185.47;;;-146.33
37414;BMP280;23279;46.472;30.760;2023-08-21T01:51:06;77203.78;;;-146.33
37414;BMP280;23279;46.472;30.760;2023-08-21T01:53:31;77199.72;;;-146.33
37414;BMP280;23279;46.472;30.760;2023-08-21T01:55:57;77203.78;;;-146.33
37414;BMP280;23279;46.472;30.760;2023-08-21T01:58:22;77183.44;;;-146.33
37414;BMP280;23279;46.472;30.760;2023-08-21T02:00:48;77197.69;;;-146.33
37414;BMP280;23279;46.472;30.760;2023-08-21T02:03:13;77191.59;;;-146.33
37414;BMP280;23279;46.472;30.760;2023-08-21T02:05:40;77177.34;;;-146.33
37414;BMP280;23279;46.472;30.760;2023-08-21T02:08:06;77189.53;;;-146.33
37414;BMP280;23279;46.472;30.760;2023-08-21T02:10:32;77197.69;;;-146.33
37414;BMP280;23279;46.472;30.760;2023-08-21T02:12:58;77201.75;;;-146.33
37414;BMP280;23279;46.472;30.760;2023-08-21T02:15:23;77209.88;;;-146.33
37414;BMP280;23279;46.472;30.760;2023-08-21T02:17:48;77220.06;;;-146.33
37414;BMP280;23279;46.472;30.760;2023-08-21T02:20:14;77222.09;;;-146.33
37414;BMP280;23279;46.472;30.760;2023-08-21T02:22:40;77211.94;;;-146.33
37414;BMP280;23279;46.472;30.760;2023-08-21T02:25:05;77224.13;;;-146.33
37414;BMP280;23279;46.472;30.760;2023-08-21T02:27:31;77232.28;;;-146.33
37414;BMP280;23279;46.472;30.760;2023-08-21T02:29:56;77218.03;;;-146.33
37414;BMP280;23279;46.472;30.760;2023-08-21T02:32:21;77213.97;;;-146.33
37414;BMP280;23279;46.472;30.760;2023-08-21T02:34:47;77234.31;;;-146.33
37414;BMP280;23279;46.472;30.760;2023-08-21T02:37:12;77220.06;;;-146.33
37414;BMP280;23279;46.472;30.760;2023-08-21T02:39:38;77242.44;;;-146.33
37414;BMP280;23279;46.472;30.760;2023-08-21T02:42:03;77242.44;;;-146.33
37414;BMP280;23279;46.472;30.760;2023-08-21T02:44:29;77242.44;;;-146.33
37414;BMP280;23279;46.472;30.760;2023-08-21T02:46:54;77234.31;;;-146.33
37414;BMP280;23279;46.472;30.760;2023-08-21T02:49:19;77246.50;;;-146.33
37414;BMP280;23279;46.472;30.760;2023-08-21T02:51:45;77268.88;;;-146.33
37414;BMP280;23279;46.472;30.760;2023-08-21T02:54:10;77248.53;;;-146.33
37414;BMP280;23279;46.472;30.760;2023-08-21T02:56:36;77252.63;;;-146.33
37414;BMP280;23279;46.472;30.760;2023-08-21T02:59:01;77252.63;;;-146.33
37414;BMP280;23279;46.472;30.760;2023-08-21T03:01:27;77262.78;;;-146.33
37414;BMP280;23279;46.472;30.760;2023-08-21T03:03:53;77256.69;;;-146.33
37414;BMP280;23279;46.472;30.760;2023-08-21T03:06:18;77252.63;;;-146.33
37414;BMP280;23279;46.472;30.760;2023-08-21T03:08:44;77240.41;;;-146.33
37414;BMP280;23279;46.472;30.760;2023-08-21T03:11:09;77240.41;;;-146.33
37414;BMP280;23279;46.472;30.760;2023-08-21T03:13:35;77226.16;;;-146.33
37414;BMP280;23279;46.472;30.760;2023-08-21T03:16:00;77230.22;;;-146.33
37414;BMP280;23279;46.472;30.760;2023-08-21T03:18:30;77236.34;;;-146.33
37414;BMP280;23279;46.472;30.760;2023-08-21T03:20:56;77246.50;;;-146.33
37414;BMP280;23279;46.472;30.760;2023-08-21T03:23:21;77246.50;;;-146.33
37414;BMP280;23279;46.472;30.760;2023-08-21T03:25:47;77254.66;;;-146.33
37414;BMP280;23279;46.472;30.760;2023-08-21T03:28:12;77238.38;;;-146.33
37414;BMP280;23279;46.472;30.760;2023-08-21T03:30:40;77228.19;;;-146.33
37414;BMP280;23279;46.472;30.760;2023-08-21T03:33:06;77226.16;;;-146.33
37414;BMP280;23279;46.472;30.760;2023-08-21T03:35:33;77234.31;;;-146.33
37414;BMP280;23279;46.472;30.760;2023-08-21T03:37:58;77228.19;;;-146.33
37414;BMP280;23279;46.472;30.760;2023-08-21T03:40:24;77226.16;;;-146.33
37414;BMP280;23279;46.472;30.760;2023-08-21T03:42:49;77230.22;;;-146.33
37414;BMP280;23279;46.472;30.760;2023-08-21T03:45:15;77228.19;;;-146.33
37414;BMP280;23279;46.472;30.760;2023-08-21T03:47:40;77213.97;;;-146.33
37414;BMP280;23279;46.472;30.760;2023-08-21T03:50:06;77218.03;;;-146.33
37414;BMP280;23279;46.472;30.760;2023-08-21T03:52:31;77222.09;;;-146.33
37414;BMP280;23279;46.472;30.760;2023-08-21T03:54:57;77216.00;;;-146.33
37414;BMP280;23279;46.472;30.760;2023-08-21T03:57:22;77211.94;;;-146.33
37414;BMP280;23279;46.472;30.760;2023-08-21T03:59:48;77207.84;;;-146.33
37414;BMP280;23279;46.472;30.760;2023-08-21T04:02:13;77209.88;;;-146.33
37414;BMP280;23279;46.472;30.760;2023-08-21T04:04:38;77203.78;;;-146.33
37414;BMP280;23279;46.472;30.760;2023-08-21T04:07:04;77205.81;;;-146.33
37414;BMP280;23279;46.472;30.760;2023-08-21T04:09:29;77197.69;;;-146.33
37414;BMP280;23279;46.472;30.760;2023-08-21T04:11:55;77193.63;;;-146.33
37414;BMP280;23279;46.472;30.760;2023-08-21T04:14:20;77189.53;;;-146.33
37414;BMP280;23279;46.472;30.760;2023-08-21T04:16:46;77197.69;;;-146.33
37414;BMP280;23279;46.472;30.760;2023-08-21T04:19:11;77179.38;;;-146.33
37414;BMP280;23279;46.472;30.760;2023-08-21T04:21:37;77169.19;;;-146.33
37414;BMP280;23279;46.472;30.760;2023-08-21T04:24:02;77169.19;;;-146.33
37414;BMP280;23279;46.472;30.760;2023-08-21T04:26:27;77167.16;;;-146.33
37414;BMP280;23279;46.472;30.760;2023-08-21T04:28:53;77161.06;;;-146.33
37414;BMP280;23279;46.472;30.760;2023-08-21T04:31:18;77140.72;;;-146.33
37414;BMP280;23279;46.472;30.760;2023-08-21T04:33:44;77140.72;;;-146.33
37414;BMP280;23279;46.472;30.760;2023-08-21T04:36:15;77140.72;;;-146.33
37414;BMP280;23279;46.472;30.760;2023-08-21T04:38:40;77124.44;;;-146.33
37414;BMP280;23279;46.472;30.760;2023-08-21T04:41:07;77112.25;;;-146.33
37414;BMP280;23279;46.472;30.760;2023-08-21T04:43:33;77112.25;;;-146.33
37414;BMP280;23279;46.472;30.760;2023-08-21T04:45:58;77098.00;;;-146.33
37414;BMP280;23279;46.472;30.760;2023-08-21T04:48:23;77104.09;;;-146.33
37414;BMP280;23279;46.472;30.760;2023-08-21T04:50:49;77114.28;;;-146.33
37414;BMP280;23279;46.472;30.760;2023-08-21T04:53:14;77104.09;;;-146.33
37414;BMP280;23279;46.472;30.760;2023-08-21T04:55:40;77112.25;;;-146.33
37414;BMP280;23279;46.472;30.760;2023-08-21T04:58:06;77095.97;;;-146.33
37414;BMP280;23279;46.472;30.760;2023-08-21T05:00:32;77091.91;;;-146.33
37414;BMP280;23279;46.472;30.760;2023-08-21T05:02:58;77071.56;;;-146.33
37414;BMP280;23279;46.472;30.760;2023-08-21T05:05:23;77051.22;;;-146.33
37414;BMP280;23279;46.472;30.760;2023-08-21T05:07:49;77036.97;;;-146.33
37414;BMP280;23279;46.472;30.760;2023-08-21T05:10:14;77034.94;;;-146.33
37414;BMP280;23279;46.472;30.760;2023-08-21T05:12:40;77010.53;;;-146.33
37414;BMP280;23279;46.472;30.760;2023-08-21T05:15:05;77010.53;;;-146.33
37414;BMP280;23279;46.472;30.760;2023-08-21T05:17:31;76982.06;;;-146.33
37414;BMP280;23279;46.472;30.760;2023-08-21T05:19:56;76967.81;;;-146.33
37414;BMP280;23279;46.472;30.760;2023-08-21T05:22:22;76945.44;;;-146.33
37414;BMP280;23279;46.472;30.760;2023-08-21T05:24:47;76925.09;;;-146.33
37414;BMP280;23279;46.472;30.760;2023-08-21T05:27:13;76876.28;;;-146.33
37414;BMP280;23279;46.472;30.760;2023-08-21T05:29:38;76888.47;;;-146.33
37414;BMP280;23279;46.472;30.760;2023-08-21T05:32:04;76870.19;;;-146.33
37414;BMP280;23279;46.472;30.760;2023-08-21T05:34:30;76835.59;;;-146.33
37414;BMP280;23279;46.472;30.760;2023-08-21T05:36:56;76823.38;;;-146.33
37414;BMP280;23279;46.472;30.760;2023-08-21T05:39:21;76801.03;;;-146.33
37414;BMP280;23279;46.472;30.760;2023-08-21T05:41:47;76798.97;;;-146.33
37414;BMP280;23279;46.472;30.760;2023-08-21T05:44:12;76760.34;;;-146.33
37414;BMP280;23279;46.472;30.760;2023-08-21T05:46:37;76754.22;;;-146.33
37414;BMP280;23279;46.472;30.760;2023-08-21T05:49:03;76762.38;;;-146.33
37414;BMP280;23279;46.472;30.760;2023-08-21T05:51:29;76766.44;;;-146.33
37414;BMP280;23279;46.472;30.760;2023-08-21T05:53:54;76735.94;;;-146.33
37414;BMP280;23279;46.472;30.760;2023-08-21T05:56:20;76746.09;;;-146.33
37414;BMP280;23279;46.472;30.760;2023-08-21T05:58:45;76786.78;;;-146.33
37414;BMP280;23279;46.472;30.760;2023-08-21T06:01:11;76786.78;;;-146.33
37414;BMP280;23279;46.472;30.760;2023-08-21T06:03:37;76758.31;;;-146.33
37414;BMP280;23279;46.472;30.760;2023-08-21T06:06:02;76750.16;;;-146.33
37414;BMP280;23279;46.472;30.760;2023-08-21T06:08:28;76733.91;;;-146.33
37414;BMP280;23279;46.472;30.760;2023-08-21T06:10:53;76715.59;;;-146.33
37414;BMP280;23279;46.472;30.760;2023-08-21T06:13:19;76709.50;;;-146.33
37414;BMP280;23279;46.472;30.760;2023-08-21T06:15:44;76705.41;;;-146.33
37414;BMP280;23279;46.472;30.760;2023-08-21T06:18:13;76733.91;;;-146.33
37414;BMP280;23279;46.472;30.760;2023-08-21T06:20:42;76762.38;;;-146.33
37414;BMP280;23279;46.472;30.760;2023-08-21T06:23:07;76764.41;;;-146.33
37414;BMP280;23279;46.472;30.760;2023-08-21T06:25:33;76750.16;;;-146.33
37414;BMP280;23279;46.472;30.760;2023-08-21T06:27:58;76740.00;;;-146.33
37414;BMP280;23279;46.472;30.760;2023-08-21T06:30:24;76715.59;;;-146.33
37414;BMP280;23279;46.472;30.760;2023-08-21T06:32:49;76709.50;;;-146.33
37414;BMP280;23279;46.472;30.760;2023-08-21T06:35:15;76697.28;;;-146.33
37414;BMP280;23279;46.472;30.760;2023-08-21T06:37:40;76674.91;;;-146.33
37414;BMP280;23279;46.472;30.760;2023-08-21T06:40:06;76691.19;;;-146.33
37414;BMP280;23279;46.472;30.760;2023-08-21T06:42:32;76715.59;;;-146.33
37414;BMP280;23279;46.472;30.760;2023-08-21T06:44:57;76707.44;;;-146.33
37414;BMP280;23279;46.472;30.760;2023-08-21T06:47:23;76701.34;;;-146.33
37414;BMP280;23279;46.472;30.760;2023-08-21T06:49:48;76681.00;;;-146.33
37414;BMP280;23279;46.472;30.760;2023-08-21T06:52:13;76670.84;;;-146.33
37414;BMP280;23279;46.472;30.760;2023-08-21T06:54:39;76648.47;;;-146.33
37414;BMP280;23279;46.472;30.760;2023-08-21T06:57:04;76640.34;;;-146.33
37414;BMP280;23279;46.472;30.760;2023-08-21T06:59:29;76605.75;;;-146.33
37414;BMP280;23279;46.472;30.760;2023-08-21T07:01:55;76589.47;;;-146.33
37414;BMP280;23279;46.472;30.760;2023-08-21T07:04:20;76589.47;;;-146.33
37414;BMP280;23279;46.472;30.760;2023-08-21T07:06:46;76544.75;;;-146.33
37414;BMP280;23279;46.472;30.760;2023-08-21T07:09:11;76538.63;;;-146.33
37414;BMP280;23279;46.472;30.760;2023-08-21T07:11:36;76550.84;;;-146.33
37414;BMP280;23279;46.472;30.760;2023-08-21T07:14:02;76579.31;;;-146.33
37414;BMP280;23279;46.472;30.760;2023-08-21T07:16:28;76565.06;;;-146.33
37414;BMP280;23279;46.472;30.760;2023-08-21T07:18:54;76567.09;;;-146.33
37414;BMP280;23279;46.472;30.760;2023-08-21T07:21:20;76548.81;;;-146.33
37414;BMP280;23279;46.472;30.760;2023-08-21T07:23:45;76546.78;;;-146.33
37414;BMP280;23279;46.472;30.760;2023-08-21T07:26:11;76522.38;;;-146.33
37414;BMP280;23279;46.472;30.760;2023-08-21T07:28:36;76512.19;;;-146.33
37414;BMP280;23279;46.472;30.760;2023-08-21T07:31:02;76500.00;;;-146.33
37414;BMP280;23279;46.472;30.760;2023-08-21T07:33:27;76477.63;;;-146.33
37414;BMP280;23279;46.472;30.760;2023-08-21T07:36:04;76449.16;;;-146.33
37414;BMP280;23279;46.472;30.760;2023-08-21T07:38:30;76445.09;;;-146.33
37414;BMP280;23279;46.472;30.760;2023-08-21T07:41:06;76432.88;;;-146.33
37414;BMP280;23279;46.472;30.760;2023-08-21T07:43:33;76416.59;;;-146.33
37414;BMP280;23279;46.472;30.760;2023-08-21T07:46:05;76400.34;;;-146.33
37414;BMP280;23279;46.472;30.760;2023-08-21T07:48:31;76412.53;;;-146.33
37414;BMP280;23279;46.472;30.760;2023-08-21T07:50:57;76412.53;;;-146.33
37414;BMP280;23279;46.472;30.760;2023-08-21T07:53:23;76441.00;;;-146.33
37414;BMP280;23279;46.472;30.760;2023-08-21T07:55:48;76457.28;;;-146.33
37414;BMP280;23279;46.472;30.760;2023-08-21T07:58:14;76465.41;;;-146.33
37414;BMP280;23279;46.472;30.760;2023-08-21T08:00:40;76473.56;;;-146.33
37414;BMP280;23279;46.472;30.760;2023-08-21T08:03:06;76497.97;;;-146.33
37414;BMP280;23279;46.472;30.760;2023-08-21T08:05:33;76500.00;;;-146.33
37414;BMP280;23279;46.472;30.760;2023-08-21T08:07:58;76493.91;;;-146.33
37414;BMP280;23279;46.472;30.760;2023-08-21T08:10:24;76465.41;;;-146.33
37414;BMP280;23279;46.472;30.760;2023-08-21T08:12:50;76438.97;;;-146.33
37414;BMP280;23279;46.472;30.760;2023-08-21T08:15:16;76438.97;;;-146.33
37414;BMP280;23279;46.472;30.760;2023-08-21T08:17:41;76469.50;;;-146.33
37414;BMP280;23279;46.472;30.760;2023-08-21T08:20:07;76457.28;;;-146.33
37414;BMP280;23279;46.472;30.760;2023-08-21T08:22:32;76467.44;;;-146.33
37414;BMP280;23279;46.472;30.760;2023-08-21T08:24:58;76453.22;;;-146.33
37414;BMP280;23279;46.472;30.760;2023-08-21T08:27:23;76432.88;;;-146.33
37414;BMP280;23279;46.472;30.760;2023-08-21T08:29:49;76406.44;;;-146.33
37414;BMP280;23279;46.472;30.760;2023-08-21T08:32:14;76410.50;;;-146.33
37414;BMP280;23279;46.472;30.760;2023-08-21T08:34:40;76441.00;;;-146.33
37414;BMP280;23279;46.472;30.760;2023-08-21T08:37:05;76461.34;;;-146.33
37414;BMP280;23279;46.472;30.760;2023-08-21T08:39:31;76473.56;;;-146.33
37414;BMP280;23279;46.472;30.760;2023-08-21T08:41:58;76485.75;;;-146.33
37414;BMP280;23279;46.472;30.760;2023-08-21T08:44:26;76477.63;;;-146.33
37414;BMP280;23279;46.472;30.760;2023-08-21T08:46:52;76455.25;;;-146.33
37414;BMP280;23279;46.472;30.760;2023-08-21T08:49:18;76473.56;;;-146.33
37414;BMP280;23279;46.472;30.760;2023-08-21T08:51:44;76465.41;;;-146.33
37414;BMP280;23279;46.472;30.760;2023-08-21T08:54:11;76473.56;;;-146.33
37414;BMP280;23279;46.472;30.760;2023-08-21T08:56:37;76467.44;;;-146.33
37414;BMP280;23279;46.472;30.760;2023-08-21T08:59:07;76441.00;;;-146.33
37414;BMP280;23279;46.472;30.760;2023-08-21T09:01:33;76453.22;;;-146.33
37414;BMP280;23279;46.472;30.760;2023-08-21T09:03:58;76441.00;;;-146.33
37414;BMP280;23279;46.472;30.760;2023-08-21T09:06:24;76436.94;;;-146.33
37414;BMP280;23279;46.472;30.760;2023-08-21T09:08:56;76424.75;;;-146.33
37414;BMP280;23279;46.472;30.760;2023-08-21T09:11:22;76400.34;;;-146.33
37414;BMP280;23279;46.472;30.760;2023-08-21T09:13:52;76355.59;;;-146.33
37414;BMP280;23279;46.472;30.760;2023-08-21T09:16:18;76312.88;;;-146.33
37414;BMP280;23279;46.472;30.760;2023-08-21T09:18:54;76286.44;;;-146.33
37414;BMP280;23279;46.472;30.760;2023-08-21T09:21:22;76286.44;;;-146.33
37414;BMP280;23279;46.472;30.760;2023-08-21T09:23:51;76274.25;;;-146.33
37414;BMP280;23279;46.472;30.760;2023-08-21T09:26:21;76323.06;;;-146.33
37414;BMP280;23279;46.472;30.760;2023-08-21T09:28:51;76349.50;;;-146.33
37414;BMP280;23279;46.472;30.760;2023-08-21T09:31:29;76367.78;;;-146.33
37414;BMP280;23279;46.472;30.760;2023-08-21T09:33:56;76367.78;;;-146.33
37414;BMP280;23279;46.472;30.760;2023-08-21T09:36:23;76377.97;;;-146.33
37414;BMP280;23279;46.472;30.760;2023-08-21T09:38:51;76363.72;;;-146.33
37414;BMP280;23279;46.472;30.760;2023-08-21T09:41:20;76357.63;;;-146.33
37414;BMP280;23279;46.472;30.760;2023-08-21T09:43:46;76367.78;;;-146.33
37414;BMP280;23279;46.472;30.760;2023-08-21T09:46:16;76367.78;;;-146.33
37414;BMP280;23279;46.472;30.760;2023-08-21T09:48:44;76384.06;;;-146.33
37414;BMP280;23279;46.472;30.760;2023-08-21T09:51:10;76373.91;;;-146.33
37414;BMP280;23279;46.472;30.760;2023-08-21T09:53:37;76382.03;;;-146.33
37414;BMP280;23279;46.472;30.760;2023-08-21T09:56:02;76367.78;;;-146.33
37414;BMP280;23279;46.472;30.760;2023-08-21T09:58:29;76339.31;;;-146.33
37414;BMP280;23279;46.472;30.760;2023-08-21T10:00:56;76310.84;;;-146.33
37414;BMP280;23279;46.472;30.760;2023-08-21T10:03:23;76349.50;;;-146.33
37414;BMP280;23279;46.472;30.760;2023-08-21T10:05:49;76375.94;;;-146.33
37414;BMP280;23279;46.472;30.760;2023-08-21T10:08:16;76357.63;;;-146.33
37414;BMP280;23279;46.472;30.760;2023-08-21T10:10:43;76353.56;;;-146.33
37414;BMP280;23279;46.472;30.760;2023-08-21T10:13:09;76359.66;;;-146.33
37414;BMP280;23279;46.472;30.760;2023-08-21T10:15:36;76359.66;;;-146.33
37414;BMP280;23279;46.472;30.760;2023-08-21T10:18:18;76333.22;;;-146.33
37414;BMP280;23279;46.472;30.760;2023-08-21T10:20:45;76333.22;;;-146.33
37414;BMP280;23279;46.472;30.760;2023-08-21T10:23:31;76286.44;;;-146.33
37414;BMP280;23279;46.472;30.760;2023-08-21T10:25:58;76302.72;;;-146.33
37414;BMP280;23279;46.472;30.760;2023-08-21T10:28:24;76308.81;;;-146.33
37414;BMP280;23279;46.472;30.760;2023-08-21T10:30:49;76296.63;;;-146.33
37414;BMP280;23279;46.472;30.760;2023-08-21T10:33:15;76316.97;;;-146.33
37414;BMP280;23279;46.472;30.760;2023-08-21T10:35:40;76312.88;;;-146.33
37414;BMP280;23279;46.472;30.760;2023-08-21T10:40:39;76278.31;;;-146.33
37414;BMP280;23279;46.472;30.760;2023-08-21T10:43:05;76294.59;;;-146.33
37414;BMP280;23279;46.472;30.760;2023-08-21T10:45:54;76284.41;;;-146.33
37414;BMP280;23279;46.472;30.760;2023-08-21T10:48:20;76253.91;;;-146.33
37414;BMP280;23279;46.472;30.760;2023-08-21T10:50:46;76225.44;;;-146.33
37414;BMP280;23279;46.472;30.760;2023-08-21T10:53:12;76231.53;;;-146.33
37414;BMP280;23279;46.472;30.760;2023-08-21T10:55:38;76217.31;;;-146.33
37414;BMP280;23279;46.472;30.760;2023-08-21T10:58:04;76188.84;;;-146.33
37414;BMP280;23279;46.472;30.760;2023-08-21T11:00:29;76152.22;;;-146.33
37414;BMP280;23279;46.472;30.760;2023-08-21T11:02:54;76103.44;;;-146.33
37414;BMP280;23279;46.472;30.760;2023-08-21T11:05:20;76095.28;;;-146.33
37414;BMP280;23279;46.472;30.760;2023-08-21T11:07:47;76074.97;;;-146.33
37414;BMP280;23279;46.472;30.760;2023-08-21T11:10:22;76085.13;;;-146.33
37414;BMP280;23279;46.472;30.760;2023-08-21T11:12:53;76111.56;;;-146.33
37414;BMP280;23279;46.472;30.760;2023-08-21T11:15:19;76087.16;;;-146.33
37414;BMP280;23279;46.472;30.760;2023-08-21T11:18:10;76060.72;;;-146.33
37414;BMP280;23279;46.472;30.760;2023-08-21T11:20:36;76066.81;;;-146.33
37414;BMP280;23279;46.472;30.760;2023-08-21T11:23:06;76101.38;;;-146.33
37414;BMP280;23279;46.472;30.760;2023-08-21T11:25:38;76119.69;;;-146.33
37414;BMP280;23279;46.472;30.760;2023-08-21T11:28:05;76133.94;;;-146.33
37414;BMP280;23279;46.472;30.760;2023-08-21T11:30:31;76144.09;;;-146.33
37414;BMP280;23279;46.472;30.760;2023-08-21T11:33:11;76131.91;;;-146.33
37414;BMP280;23279;46.472;30.760;2023-08-21T11:35:40;76156.28;;;-146.33
37414;BMP280;23279;46.472;30.760;2023-08-21T11:38:06;76152.22;;;-146.33
37414;BMP280;23279;46.472;30.760;2023-08-21T11:40:34;76129.84;;;-146.33
37414;BMP280;23279;46.472;30.760;2023-08-21T11:43:03;76125.78;;;-146.33
37414;BMP280;23279;46.472;30.760;2023-08-21T11:45:30;76091.22;;;-146.33
37414;BMP280;23279;46.472;30.760;2023-08-21T11:47:56;76085.13;;;-146.33
37414;BMP280;23279;46.472;30.760;2023-08-21T11:50:22;76125.78;;;-146.33
37414;BMP280;23279;46.472;30.760;2023-08-21T11:52:51;76168.50;;;-146.33
37414;BMP280;23279;46.472;30.760;2023-08-21T11:55:17;76178.66;;;-146.33
37414;BMP280;23279;46.472;30.760;2023-08-21T11:57:49;76184.75;;;-146.33
37414;BMP280;23279;46.472;30.760;2023-08-21T12:00:19;76209.16;;;-146.33
37414;BMP280;23279;46.472;30.760;2023-08-21T12:03:00;76196.97;;;-146.33
37414;BMP280;23279;46.472;30.760;2023-08-21T12:05:27;76182.72;;;-146.33
37414;BMP280;23279;46.472;30.760;2023-08-21T12:07:54;76172.56;;;-146.33
37414;BMP280;23279;46.472;30.760;2023-08-21T12:10:24;76172.56;;;-146.33
37414;BMP280;23279;46.472;30.760;2023-08-21T12:12:49;76201.03;;;-146.33
37414;BMP280;23279;46.472;30.760;2023-08-21T12:15:15;76213.25;;;-146.33
37414;BMP280;23279;46.472;30.760;2023-08-21T12:17:40;76217.31;;;-146.33
37414;BMP280;23279;46.472;30.760;2023-08-21T12:20:06;76201.03;;;-146.33
37414;BMP280;23279;46.472;30.760;2023-08-21T12:22:37;76213.25;;;-146.33
37414;BMP280;23279;46.472;30.760;2023-08-21T12:25:03;76209.16;;;-146.33
37414;BMP280;23279;46.472;30.760;2023-08-21T12:27:29;76219.34;;;-146.33
37414;BMP280;23279;46.472;30.760;2023-08-21T12:29:54;76225.44;;;-146.33
37414;BMP280;23279;46.472;30.760;2023-08-21T12:32:20;76219.34;;;-146.33
37414;BMP280;23279;46.472;30.760;2023-08-21T12:34:45;76227.47;;;-146.33
37414;BMP280;23279;46.472;30.760;2023-08-21T12:37:11;76196.97;;;-146.33
37414;BMP280;23279;46.472;30.760;2023-08-21T12:39:37;76213.25;;;-146.33
37414;BMP280;23279;46.472;30.760;2023-08-21T12:42:02;76192.91;;;-146.33
37414;BMP280;23279;46.472;30.760;2023-08-21T12:44:28;76190.88;;;-146.33
37414;BMP280;23279;46.472;30.760;2023-08-21T12:46:54;76201.03;;;-146.33
37414;BMP280;23279;46.472;30.760;2023-08-21T12:49:19;76205.09;;;-146.33
37414;BMP280;23279;46.472;30.760;2023-08-21T12:51:44;76194.94;;;-146.33
37414;BMP280;23279;46.472;30.760;2023-08-21T12:54:10;76211.22;;;-146.33
37414;BMP280;23279;46.472;30.760;2023-08-21T12:56:35;76201.03;;;-146.33
37414;BMP280;23279;46.472;30.760;2023-08-21T12:59:01;76203.06;;;-146.33
37414;BMP280;23279;46.472;30.760;2023-08-21T13:01:26;76180.69;;;-146.33
37414;BMP280;23279;46.472;30.760;2023-08-21T13:03:51;76158.31;;;-146.33
37414;BMP280;23279;46.472;30.760;2023-08-21T13:06:17;76170.53;;;-146.33
37414;BMP280;23279;46.472;30.760;2023-08-21T13:08:42;76170.53;;;-146.33
37414;BMP280;23279;46.472;30.760;2023-08-21T13:11:08;76172.56;;;-146.33
37414;BMP280;23279;46.472;30.760;2023-08-21T13:13:35;76172.56;;;-146.33
37414;BMP280;23279;46.472;30.760;2023-08-21T13:16:00;76156.28;;;-146.33
37414;BMP280;23279;46.472;30.760;2023-08-21T13:18:26;76144.09;;;-146.33
37414;BMP280;23279;46.472;30.760;2023-08-21T13:20:52;76154.25;;;-146.33
37414;BMP280;23279;46.472;30.760;2023-08-21T13:23:17;76144.09;;;-146.33
37414;BMP280;23279;46.472;30.760;2023-08-21T13:25:43;76146.13;;;-146.33
37414;BMP280;23279;46.472;30.760;2023-08-21T13:28:08;76170.53;;;-146.33
37414;BMP280;23279;46.472;30.760;2023-08-21T13:30:34;76154.25;;;-146.33
37414;BMP280;23279;46.472;30.760;2023-08-21T13:32:59;76156.28;;;-146.33
37414;BMP280;23279;46.472;30.760;2023-08-21T13:35:25;76164.44;;;-146.33